Terminal Aerodrome Forecast
Issued by NWS Blacksburg, VA

Current Version | Previous Version | Graphics & Text | Print | Product List | Glossary On
Versions: 1 2 3 4 5 6 7 8 9 10 11 12 13 14 15 16 17 18 19 20 21 22 23 24 25 26 27 28 29 30
000
FTUS41 KRNK 101604 AAA
TAFBLF
TAF AMD
KBLF 101604Z 1016/1112 28010G18KT P6SM BKN020
     FM101730 27010G18KT P6SM SCT025 SCT120
     FM102000 27010KT P6SM SCT250
     FM110600 27011KT P6SM SCT050=

USA.gov is the U.S. government's official web portal to all federal, state and local government web resources and services.